Time;durP1;ratioP1;P1;durP2;ratioP2;P2;SDS_P1;SDS_P2;PMS_P1;PMS_P2;Temp;Humidity;BMP_temperature;BMP_pressure;BME280_temperature;BME280_humidity;BME280_pressure;Samples;Min_cycle;Max_cycle;Signal;HPM_P1;HPM_P2
2021/05/04 00:00:13;;;;;;;11.93;10.00;;;;;;;6.21;100.00;96214.03;5009889;28;20077;-64
2021/05/04 00:02:41;;;;;;;14.13;10.27;;;;;;;6.02;100.00;96211.19;5005775;28;20108;-65
2021/05/04 00:05:09;;;;;;;13.45;10.63;;;;;;;5.93;100.00;96213.63;5008312;28;20581;-63
2021/05/04 00:07:38;;;;;;;12.70;10.48;;;;;;;5.90;100.00;96205.16;5008657;28;20477;-63
2021/05/04 00:10:06;;;;;;;15.20;11.38;;;;;;;5.85;100.00;96205.53;5009321;28;20077;-63
2021/05/04 00:12:34;;;;;;;12.30;10.68;;;;;;;5.79;100.00;96203.38;5000163;28;21345;-63
2021/05/04 00:15:01;;;;;;;13.90;10.80;;;;;;;5.76;100.00;96202.78;5010202;28;20088;-64
2021/05/04 00:17:29;;;;;;;13.60;10.25;;;;;;;5.76;100.00;96197.56;5005407;28;20065;-64
2021/05/04 00:19:57;;;;;;;14.90;10.32;;;;;;;5.67;100.00;96193.88;5004976;28;20065;-63
2021/05/04 00:22:24;;;;;;;11.73;10.02;;;;;;;5.69;100.00;96191.97;5006048;28;20524;-64
2021/05/04 00:24:53;;;;;;;14.65;11.50;;;;;;;5.60;100.00;96196.13;5006749;28;20073;-64
2021/05/04 00:27:20;;;;;;;15.00;10.95;;;;;;;5.57;100.00;96191.16;5006988;28;20108;-64
2021/05/04 00:29:48;;;;;;;14.90;10.55;;;;;;;5.53;100.00;96183.66;5008757;28;20085;-62
2021/05/04 00:32:15;;;;;;;16.85;11.93;;;;;;;5.41;100.00;96185.47;5005302;28;20543;-64
2021/05/04 00:34:43;;;;;;;12.77;10.45;;;;;;;5.44;100.00;96174.78;5009881;28;20078;-64
2021/05/04 00:37:11;;;;;;;19.33;10.80;;;;;;;5.32;100.00;96179.16;5008675;28;20076;-65
2021/05/04 00:39:39;;;;;;;13.55;10.65;;;;;;;5.39;100.00;96171.66;5005038;28;20086;-65
2021/05/04 00:42:07;;;;;;;12.98;10.10;;;;;;;5.36;100.00;96172.72;5009373;28;20070;-63
2021/05/04 00:44:35;;;;;;;12.63;9.20;;;;;;;5.13;100.00;96171.09;5005647;28;20073;-62
2021/05/04 00:47:03;;;;;;;11.23;8.90;;;;;;;5.20;100.00;96160.03;5007704;28;20077;-64
2021/05/04 00:49:30;;;;;;;10.15;9.05;;;;;;;5.26;100.00;96163.94;5005700;28;20073;-64
2021/05/04 00:51:58;;;;;;;9.48;8.45;;;;;;;5.19;100.00;96166.19;5008905;28;20088;-63
2021/05/04 00:54:26;;;;;;;9.07;8.15;;;;;;;5.08;100.00;96162.75;5004686;28;20077;-63
2021/05/04 00:56:55;;;;;;;7.95;7.15;;;;;;;5.11;100.00;96163.34;5007194;28;20074;-64
2021/05/04 00:59:24;;;;;;;8.48;7.32;;;;;;;5.19;100.00;96149.69;5004002;28;20061;-64
2021/05/04 01:01:53;;;;;;;8.82;7.32;;;;;;;4.95;100.00;96145.41;5007294;28;20062;-63
2021/05/04 01:04:21;;;;;;;8.05;7.25;;;;;;;5.08;100.00;96149.69;5007620;28;20076;-58
2021/05/04 01:06:49;;;;;;;9.65;7.78;;;;;;;5.05;100.00;96148.16;5009501;28;20078;-64
2021/05/04 01:09:17;;;;;;;8.70;7.80;;;;;;;4.83;100.00;96143.75;5000245;28;20061;-64
2021/05/04 01:11:46;;;;;;;7.85;6.80;;;;;;;4.94;100.00;96127.25;5008266;28;20077;-61
2021/05/04 01:14:14;;;;;;;7.93;6.72;;;;;;;4.94;100.00;96135.09;5004722;28;20447;-64
2021/05/04 01:16:43;;;;;;;7.97;7.00;;;;;;;4.97;100.00;96127.84;5006836;28;20069;-64
2021/05/04 01:19:11;;;;;;;8.70;6.65;;;;;;;4.94;100.00;96122.03;5006233;28;20069;-62
2021/05/04 01:21:39;;;;;;;7.18;6.30;;;;;;;4.92;100.00;96121.28;5009176;28;20085;-63
2021/05/04 01:24:09;;;;;;;6.97;6.28;;;;;;;4.83;100.00;96124.63;5005500;28;20062;-64
2021/05/04 01:26:37;;;;;;;6.88;5.88;;;;;;;4.90;100.00;96118.81;5007965;28;20038;-63
2021/05/04 01:29:05;;;;;;;7.30;6.60;;;;;;;4.82;100.00;96117.72;5005488;28;20079;-64
2021/05/04 01:31:32;;;;;;;6.85;6.07;;;;;;;4.91;100.00;96111.81;5003277;28;20072;-63
2021/05/04 01:34:00;;;;;;;6.95;6.25;;;;;;;4.84;100.00;96116.66;5011512;28;20606;-64
2021/05/04 01:36:28;;;;;;;7.90;6.88;;;;;;;4.82;100.00;96118.56;5003062;28;20256;-64
2021/05/04 01:38:56;;;;;;;6.72;5.93;;;;;;;4.76;100.00;96104.19;5006442;28;20081;-64
2021/05/04 01:41:24;;;;;;;7.93;6.50;;;;;;;4.56;100.00;96104.88;5005944;28;20069;-65
2021/05/04 01:43:51;;;;;;;7.47;6.22;;;;;;;4.39;100.00;96111.38;5005896;28;20484;-62
2021/05/04 01:46:18;;;;;;;6.85;6.05;;;;;;;4.46;100.00;96111.75;5004012;28;20082;-64
2021/05/04 01:48:46;;;;;;;7.25;6.45;;;;;;;4.42;100.00;96112.94;5010838;28;20092;-63
2021/05/04 01:51:14;;;;;;;7.45;5.80;;;;;;;4.49;100.00;96114.97;5002400;28;20084;-64
2021/05/04 01:53:42;;;;;;;7.88;5.88;;;;;;;4.33;100.00;96108.38;5005625;28;20100;-64
2021/05/04 01:56:10;;;;;;;6.78;6.18;;;;;;;4.36;100.00;96106.38;5004791;28;20073;-64
2021/05/04 01:58:38;;;;;;;6.95;5.85;;;;;;;4.27;100.00;96110.53;5006475;28;20065;-63
2021/05/04 02:01:06;;;;;;;8.10;5.63;;;;;;;4.33;100.00;96104.00;5003896;28;20632;-61
2021/05/04 02:03:33;;;;;;;7.05;6.18;;;;;;;4.43;100.00;96104.16;5009545;28;21254;-65
2021/05/04 02:06:01;;;;;;;6.85;6.15;;;;;;;4.37;100.00;96102.00;5003808;28;20084;-63
2021/05/04 02:08:28;;;;;;;6.32;5.70;;;;;;;4.46;100.00;96085.63;5007578;28;20061;-64
2021/05/04 02:10:56;;;;;;;6.07;5.47;;;;;;;4.36;100.00;96087.28;5005049;28;20076;-65
2021/05/04 02:13:25;;;;;;;6.38;5.72;;;;;;;4.51;100.00;96092.19;5005048;28;20108;-66
2021/05/04 02:15:52;;;;;;;6.20;5.45;;;;;;;4.42;100.00;96094.66;5009698;28;20100;-63
2021/05/04 02:18:20;;;;;;;5.90;5.40;;;;;;;4.42;100.00;96085.03;5003736;28;20069;-65
2021/05/04 02:20:48;;;;;;;6.78;6.07;;;;;;;4.41;100.00;96088.63;5004957;28;20227;-64
2021/05/04 02:23:15;;;;;;;6.13;5.53;;;;;;;4.45;100.00;96076.97;5003216;28;20068;-62
2021/05/04 02:25:43;;;;;;;6.78;6.18;;;;;;;4.41;100.00;96079.94;5006631;28;20069;-65
2021/05/04 02:28:11;;;;;;;6.93;6.22;;;;;;;4.39;100.00;96076.63;5002995;28;20520;-64
2021/05/04 02:30:39;;;;;;;7.05;5.75;;;;;;;4.29;100.00;96076.47;5002346;28;20492;-65
2021/05/04 02:33:06;;;;;;;6.43;5.72;;;;;;;4.36;100.00;96072.44;5004372;28;20076;-64
2021/05/04 02:35:34;;;;;;;6.22;5.63;;;;;;;4.28;100.00;96067.00;4996452;28;20456;-64
2021/05/04 02:38:02;;;;;;;7.05;5.82;;;;;;;4.25;100.00;96065.44;5005329;28;20476;-65
2021/05/04 02:40:29;;;;;;;6.20;5.60;;;;;;;4.27;100.00;96060.13;5004433;28;20471;-65
2021/05/04 02:42:57;;;;;;;6.15;5.50;;;;;;;4.22;100.00;96059.63;5005483;28;20524;-65
2021/05/04 02:45:24;;;;;;;6.03;5.53;;;;;;;4.29;100.00;96055.59;5007408;28;20078;-64
2021/05/04 02:47:53;;;;;;;6.60;5.50;;;;;;;4.33;100.00;96045.75;5003341;28;20066;-62
2021/05/04 02:50:21;;;;;;;6.00;5.43;;;;;;;4.27;100.00;96049.69;5005142;28;20092;-65
2021/05/04 02:52:48;;;;;;;6.65;5.22;;;;;;;4.31;100.00;96042.44;5003162;28;20077;-65
2021/05/04 02:55:16;;;;;;;6.88;5.60;;;;;;;4.29;100.00;96039.94;5006106;28;20455;-65
2021/05/04 02:57:44;;;;;;;6.35;5.75;;;;;;;4.23;100.00;96032.56;5007203;28;20481;-64
2021/05/04 03:00:12;;;;;;;7.93;5.57;;;;;;;4.18;100.00;96032.09;5005843;28;20524;-65
2021/05/04 03:02:40;;;;;;;7.25;5.45;;;;;;;4.15;100.00;96029.72;5005970;28;20082;-65
2021/05/04 03:05:09;;;;;;;7.65;6.15;;;;;;;4.16;100.00;96032.19;5003167;28;20070;-63
2021/05/04 03:07:37;;;;;;;6.63;5.80;;;;;;;4.15;100.00;96024.50;5006902;28;20064;-64
2021/05/04 03:10:06;;;;;;;6.60;5.68;;;;;;;4.18;100.00;96032.91;5003873;28;20089;-64
2021/05/04 03:12:33;;;;;;;7.00;5.78;;;;;;;4.15;100.00;96030.53;4997672;28;20855;-65
2021/05/04 03:15:01;;;;;;;6.70;5.65;;;;;;;4.11;100.00;96023.06;5004671;28;20081;-63
2021/05/04 03:17:28;;;;;;;6.05;5.45;;;;;;;4.01;100.00;96028.13;5004591;28;20088;-64
2021/05/04 03:19:56;;;;;;;6.05;5.43;;;;;;;4.04;100.00;96026.13;5001175;28;20062;-63
2021/05/04 03:22:24;;;;;;;6.25;5.70;;;;;;;4.13;100.00;96019.41;5006726;28;20085;-64
2021/05/04 03:24:52;;;;;;;6.05;5.43;;;;;;;3.99;100.00;96012.63;5004675;28;20074;-64
2021/05/04 03:27:20;;;;;;;7.93;6.10;;;;;;;4.01;100.00;96015.91;5004754;28;20081;-64
2021/05/04 03:29:48;;;;;;;6.05;5.43;;;;;;;4.09;100.00;96014.50;4984818;28;20072;-65
2021/05/04 03:32:15;;;;;;;6.18;5.38;;;;;;;4.08;100.00;96008.47;5004266;28;20066;-64
2021/05/04 03:34:43;;;;;;;6.28;5.68;;;;;;;4.10;100.00;96011.81;5003200;28;20065;-64
2021/05/04 03:37:11;;;;;;;6.45;5.18;;;;;;;4.11;100.00;96005.63;5005579;28;20457;-65
2021/05/04 03:39:40;;;;;;;5.82;5.32;;;;;;;4.13;100.00;95997.66;5003676;28;20570;-64
2021/05/04 03:42:09;;;;;;;5.97;5.47;;;;;;;4.11;100.00;95997.81;5004928;28;20069;-63
2021/05/04 03:44:36;;;;;;;6.05;5.45;;;;;;;4.18;100.00;96006.00;5003494;28;20483;-65
2021/05/04 03:47:04;;;;;;;6.10;5.50;;;;;;;4.00;100.00;96003.84;5001056;28;20459;-64
2021/05/04 03:49:31;;;;;;;7.72;5.88;;;;;;;4.17;100.00;96004.34;5005449;28;20068;-64
2021/05/04 03:51:59;;;;;;;6.72;5.90;;;;;;;4.03;100.00;96001.00;5006055;28;20085;-63
2021/05/04 03:54:26;;;;;;;6.13;5.53;;;;;;;3.88;100.00;96004.75;5004040;28;20077;-64
2021/05/04 03:56:57;;;;;;;6.45;5.85;;;;;;;4.07;100.00;96001.59;5002643;28;20081;-63
2021/05/04 03:59:25;;;;;;;5.65;5.10;;;;;;;4.14;100.00;96000.19;5005779;28;20069;-63
2021/05/04 04:01:52;;;;;;;6.20;5.63;;;;;;;4.11;100.00;96002.19;5000396;28;20543;-64
2021/05/04 04:04:20;;;;;;;6.63;5.13;;;;;;;4.14;100.00;96001.97;5003295;28;20081;-65
2021/05/04 04:06:48;;;;;;;6.10;5.43;;;;;;;4.21;100.00;96001.38;5005299;28;20088;-63
2021/05/04 04:09:15;;;;;;;5.85;5.22;;;;;;;4.23;100.00;95991.66;5002706;28;20501;-64
2021/05/04 04:11:43;;;;;;;5.78;5.28;;;;;;;4.46;100.00;95994.28;5003135;28;20460;-64
2021/05/04 04:14:12;;;;;;;5.95;5.45;;;;;;;4.43;100.00;95987.50;5003938;28;20057;-64
2021/05/04 04:16:39;;;;;;;5.57;5.07;;;;;;;4.82;100.00;95989.72;5007127;28;20072;-63
2021/05/04 04:19:08;;;;;;;6.22;5.22;;;;;;;5.54;100.00;95981.34;5009841;28;20685;-64
2021/05/04 04:21:35;;;;;;;5.57;5.07;;;;;;;6.09;100.00;95974.16;5006951;28;20531;-64
2021/05/04 04:24:04;;;;;;;4.80;4.40;;;;;;;7.21;100.00;95959.28;5007434;28;20066;-65
2021/05/04 04:26:31;;;;;;;4.80;4.40;;;;;;;7.70;100.00;95960.13;5007333;28;20102;-65
2021/05/04 04:29:00;;;;;;;5.28;4.10;;;;;;;7.95;100.00;95956.94;5005875;28;20066;-64
2021/05/04 04:31:28;;;;;;;5.50;3.75;;;;;;;6.86;100.00;95963.22;5004979;28;20065;-61
2021/05/04 04:33:56;;;;;;;4.97;4.57;;;;;;;8.18;100.00;95954.78;5010410;28;20085;-64
2021/05/04 04:36:23;;;;;;;3.75;3.45;;;;;;;7.34;100.00;95965.91;5007116;28;20070;-63
2021/05/04 04:38:51;;;;;;;5.63;4.53;;;;;;;9.13;100.00;95956.34;5005703;28;20151;-64
2021/05/04 04:41:35;;;;;;;5.03;4.63;;;;;;;9.49;100.00;95949.31;5009477;28;20453;-65
2021/05/04 04:44:03;;;;;;;4.57;3.90;;;;;;;10.19;99.62;95938.84;5004603;28;20072;-66
2021/05/04 04:46:40;;;;;;;4.32;3.90;;;;;;;10.56;90.83;95939.56;5007707;28;20061;-62
2021/05/04 04:49:09;;;;;;;3.85;3.45;;;;;;;10.07;100.00;95937.44;5005931;28;20070;-61
2021/05/04 04:51:37;;;;;;;3.72;3.28;;;;;;;9.94;100.00;95948.41;5010001;28;20550;-64
2021/05/04 04:54:06;;;;;;;3.70;3.28;;;;;;;9.49;100.00;95937.94;5005452;28;20073;-65
2021/05/04 04:56:34;;;;;;;4.25;3.85;;;;;;;10.51;99.50;95939.22;5008947;28;20061;-64
2021/05/04 04:59:02;;;;;;;4.65;3.50;;;;;;;9.50;100.00;95937.00;5005107;28;20061;-64
2021/05/04 05:01:29;;;;;;;5.50;3.63;;;;;;;9.26;100.00;95948.94;5006333;28;20065;-61
2021/05/04 05:03:57;;;;;;;4.05;3.60;;;;;;;9.48;100.00;95941.56;5007983;28;20519;-65
2021/05/04 05:06:25;;;;;;;3.60;3.30;;;;;;;9.03;100.00;95947.69;5006849;28;20061;-64
2021/05/04 05:08:53;;;;;;;4.80;3.60;;;;;;;8.87;100.00;95950.13;5005115;28;20062;-65
2021/05/04 05:11:21;;;;;;;4.47;3.50;;;;;;;8.85;100.00;95950.28;5007964;28;20108;-66
2021/05/04 05:13:49;;;;;;;5.72;3.80;;;;;;;9.86;100.00;95935.13;5004062;28;20468;-65
2021/05/04 05:16:19;;;;;;;4.22;3.83;;;;;;;10.55;100.00;95930.81;5007262;28;20081;-63
2021/05/04 05:18:52;;;;;;;3.72;3.30;;;;;;;11.45;88.38;95922.38;5008223;28;20484;-64
2021/05/04 05:21:21;;;;;;;4.68;3.50;;;;;;;10.62;100.00;95933.66;5005664;28;20531;-63
2021/05/04 05:23:48;;;;;;;4.95;3.28;;;;;;;10.53;100.00;95931.97;5005368;28;20466;-65
2021/05/04 05:26:16;;;;;;;4.13;3.42;;;;;;;11.87;84.90;95919.59;5007343;28;20077;-61
2021/05/04 05:28:44;;;;;;;4.43;3.15;;;;;;;11.39;89.29;95926.50;5004752;28;20066;-64
2021/05/04 05:31:12;;;;;;;4.03;3.05;;;;;;;12.98;73.68;95909.06;5004987;28;20108;-65
2021/05/04 05:33:40;;;;;;;5.78;3.28;;;;;;;12.91;73.35;95913.41;5010000;28;20092;-63
2021/05/04 05:36:07;;;;;;;5.82;3.20;;;;;;;12.32;76.02;95910.31;5003865;28;20504;-64
2021/05/04 05:38:37;;;;;;;4.15;3.10;;;;;;;11.99;81.33;95898.97;5005901;28;20466;-63
2021/05/04 05:41:05;;;;;;;6.15;3.72;;;;;;;11.11;93.06;95912.72;5004306;28;20516;-63
2021/05/04 05:43:33;;;;;;;5.47;3.50;;;;;;;10.95;98.38;95907.44;5004984;28;20074;-65
2021/05/04 05:46:03;;;;;;;13.70;6.35;;;;;;;11.43;96.20;95904.06;5007307;28;20073;-63
2021/05/04 05:48:30;;;;;;;18.58;8.38;;;;;;;11.54;93.28;95906.38;5007048;28;20471;-63
2021/05/04 05:50:58;;;;;;;7.90;6.25;;;;;;;11.77;92.84;95903.09;5002862;28;20452;-64
2021/05/04 05:53:26;;;;;;;11.70;10.52;;;;;;;11.64;94.50;95911.50;5006561;28;20574;-65
2021/05/04 05:55:54;;;;;;;8.95;6.15;;;;;;;11.73;94.64;95891.19;4998840;28;20065;-63
2021/05/04 05:58:40;;;;;;;5.93;3.63;;;;;;;11.90;90.44;95894.66;5005224;28;20636;-64
2021/05/04 06:01:08;;;;;;;5.43;3.63;;;;;;;13.52;75.56;95879.13;5004264;28;20081;-63
2021/05/04 06:03:36;;;;;;;4.53;3.50;;;;;;;12.39;87.92;95891.94;5010244;28;20580;-64
2021/05/04 06:06:03;;;;;;;4.57;3.65;;;;;;;12.67;86.70;95884.41;5002341;28;20069;-64
2021/05/04 06:08:31;;;;;;;6.47;3.47;;;;;;;12.57;84.04;95885.44;5006311;28;20065;-62
2021/05/04 06:11:00;;;;;;;4.07;2.95;;;;;;;12.46;74.55;95887.63;5005017;28;20518;-66
2021/05/04 06:13:27;;;;;;;4.78;2.88;;;;;;;12.86;70.68;95873.41;5005642;28;20453;-62
2021/05/04 06:15:55;;;;;;;6.55;3.30;;;;;;;12.43;68.42;95886.16;5002744;28;20073;-63
2021/05/04 06:18:22;;;;;;;3.88;2.88;;;;;;;12.79;64.19;95885.66;5005338;28;20068;-63
2021/05/04 06:20:50;;;;;;;5.35;2.80;;;;;;;12.78;64.29;95890.16;5003557;28;20062;-65
2021/05/04 06:23:18;;;;;;;3.70;3.00;;;;;;;12.94;65.31;95880.47;4989061;28;20066;-65
2021/05/04 06:25:45;;;;;;;3.85;2.90;;;;;;;12.98;65.34;95884.44;5005177;28;20042;-65
2021/05/04 06:28:14;;;;;;;4.28;2.80;;;;;;;13.63;62.90;95864.69;5004060;28;20078;-63
2021/05/04 06:30:42;;;;;;;3.25;2.95;;;;;;;13.20;64.78;95880.16;5009483;28;20480;-66
2021/05/04 06:33:11;;;;;;;4.88;2.60;;;;;;;13.24;65.67;95874.38;5003051;28;20516;-65
2021/05/04 06:35:41;;;;;;;3.83;2.97;;;;;;;13.63;63.37;95876.09;4999997;28;20073;-65
2021/05/04 06:38:11;;;;;;;3.17;2.40;;;;;;;13.01;64.27;95870.84;5003808;28;20038;-64
2021/05/04 06:40:40;;;;;;;3.90;2.70;;;;;;;13.16;66.25;95863.81;5004080;28;20641;-64
2021/05/04 06:43:07;;;;;;;3.40;2.80;;;;;;;13.43;61.24;95861.69;5001564;28;20077;-65
2021/05/04 06:45:37;;;;;;;5.32;2.80;;;;;;;13.46;61.61;95854.19;4992411;28;20045;-64
2021/05/04 06:48:05;;;;;;;3.30;2.63;;;;;;;13.25;61.24;95846.09;5002724;28;20076;-63
2021/05/04 06:50:33;;;;;;;3.10;2.72;;;;;;;13.51;58.17;95843.88;5005102;28;20090;-61
2021/05/04 06:53:00;;;;;;;4.32;2.72;;;;;;;13.36;55.43;95845.66;5004294;28;20535;-63
2021/05/04 06:55:29;;;;;;;4.47;2.60;;;;;;;13.74;57.53;95841.22;5004035;28;20065;-63
2021/05/04 06:57:56;;;;;;;5.18;2.65;;;;;;;14.02;55.92;95828.19;5006109;28;20100;-64
2021/05/04 07:00:24;;;;;;;3.78;2.90;;;;;;;14.05;58.33;95842.09;5006756;28;20073;-65
2021/05/04 07:02:52;;;;;;;4.47;2.85;;;;;;;14.05;58.52;95839.44;5002100;28;20146;-64
2021/05/04 07:05:21;;;;;;;4.50;2.80;;;;;;;13.90;54.33;95834.09;5003870;28;20092;-68
2021/05/04 07:07:49;;;;;;;3.63;2.75;;;;;;;14.02;52.94;95837.97;5005070;28;20042;-63
2021/05/04 07:10:16;;;;;;;5.32;2.75;;;;;;;13.91;52.90;95839.25;5004548;28;20445;-64
2021/05/04 07:12:44;;;;;;;4.28;2.90;;;;;;;14.40;51.22;95832.59;5005707;28;20093;-62
2021/05/04 07:15:12;;;;;;;3.22;2.80;;;;;;;14.43;54.20;95827.75;5006536;28;20080;-63
2021/05/04 07:17:41;;;;;;;4.07;2.83;;;;;;;14.36;51.39;95826.81;5004876;28;20069;-65
2021/05/04 07:20:12;;;;;;;4.15;2.58;;;;;;;14.61;50.78;95822.06;5002484;28;20066;-64
2021/05/04 07:22:39;;;;;;;4.00;2.63;;;;;;;14.65;50.75;95814.56;5014276;28;20069;-63
2021/05/04 07:25:08;;;;;;;4.22;2.60;;;;;;;14.87;50.67;95810.97;5002853;28;20085;-62
2021/05/04 07:27:36;;;;;;;3.67;2.55;;;;;;;15.04;50.76;95816.03;5007979;28;20077;-64
2021/05/04 07:30:05;;;;;;;3.15;2.42;;;;;;;14.88;52.29;95817.91;5003171;28;20065;-63
2021/05/04 07:32:33;;;;;;;3.33;2.50;;;;;;;15.02;52.27;95810.09;5004825;28;20066;-64
2021/05/04 07:35:01;;;;;;;6.85;2.60;;;;;;;15.39;51.58;95809.84;5002325;28;20470;-67
2021/05/04 07:37:29;;;;;;;3.28;2.65;;;;;;;15.25;50.84;95805.44;5006764;28;20077;-65
2021/05/04 07:39:57;;;;;;;3.30;2.70;;;;;;;15.35;47.87;95805.94;5003932;28;20085;-65
2021/05/04 07:42:24;;;;;;;3.63;2.65;;;;;;;15.71;50.74;95806.88;5002775;28;20426;-66
2021/05/04 07:44:52;;;;;;;6.35;2.90;;;;;;;15.52;50.19;95810.97;5003623;28;20466;-64
2021/05/04 07:47:19;;;;;;;3.90;2.75;;;;;;;15.95;49.06;95803.78;5004234;28;20479;-64
2021/05/04 07:49:48;;;;;;;3.53;2.80;;;;;;;16.00;48.34;95811.16;5002290;28;20138;-65
2021/05/04 07:52:16;;;;;;;3.00;2.70;;;;;;;16.03;45.87;95787.66;5009784;28;20704;-65
2021/05/04 07:54:46;;;;;;;4.40;2.83;;;;;;;15.66;45.98;95796.81;5007596;28;20092;-63
2021/05/04 07:57:13;;;;;;;4.88;3.10;;;;;;;15.83;47.20;95798.19;5008693;28;20088;-64
2021/05/04 07:59:41;;;;;;;4.75;2.88;;;;;;;15.94;49.31;95794.16;5007580;28;20070;-63
2021/05/04 08:02:08;;;;;;;4.57;3.28;;;;;;;16.27;48.13;95786.38;5008013;28;20092;-63
2021/05/04 08:04:37;;;;;;;4.38;2.63;;;;;;;16.07;47.41;95777.44;5006200;28;20529;-62
2021/05/04 08:07:08;;;;;;;3.22;2.72;;;;;;;16.22;50.35;95788.81;5011815;28;20073;-65
2021/05/04 08:09:35;;;;;;;;;;;;;;;16.21;47.03;95781.00;5004261;28;20270;-65
2021/05/04 08:12:04;;;;;;;3.47;2.65;;;;;;;16.12;48.35;95778.50;5004933;28;19957;-65
2021/05/04 08:14:33;;;;;;;4.65;2.72;;;;;;;16.30;47.35;95785.97;5010155;28;20068;-65
2021/05/04 08:17:11;;;;;;;4.93;2.70;;;;;;;16.72;44.82;95778.78;5005423;28;20062;-64
2021/05/04 08:19:39;;;;;;;3.03;2.72;;;;;;;16.46;45.73;95770.72;5001524;28;20061;-62
2021/05/04 08:22:07;;;;;;;4.45;2.90;;;;;;;16.88;45.71;95760.84;5006937;28;20081;-63
2021/05/04 08:24:34;;;;;;;4.55;2.90;;;;;;;16.96;43.91;95765.97;5006729;28;20082;-64
2021/05/04 08:27:02;;;;;;;6.57;2.63;;;;;;;17.48;45.27;95772.41;5004633;28;20470;-65
2021/05/04 08:29:30;;;;;;;6.25;2.63;;;;;;;17.35;47.38;95767.91;5009074;28;20065;-65
2021/05/04 08:31:57;;;;;;;3.33;2.60;;;;;;;17.58;45.18;95751.47;5005810;28;20057;-64
2021/05/04 08:34:25;;;;;;;4.72;2.47;;;;;;;17.00;44.34;95753.94;5005981;28;20074;-65
2021/05/04 08:36:52;;;;;;;3.00;2.30;;;;;;;16.90;44.57;95753.50;5009044;28;20085;-66
2021/05/04 08:39:20;;;;;;;2.60;2.40;;;;;;;16.84;48.13;95755.94;5007312;28;20070;-64
2021/05/04 08:41:48;;;;;;;5.65;2.47;;;;;;;16.81;48.21;95736.88;5006335;28;20149;-64
2021/05/04 08:44:16;;;;;;;4.93;2.28;;;;;;;16.68;47.78;95758.09;5008723;28;20073;-63
2021/05/04 08:46:46;;;;;;;7.72;2.05;;;;;;;16.39;47.46;95741.41;5005191;28;20077;-64
2021/05/04 08:49:14;;;;;;;2.30;1.80;;;;;;;16.34;46.08;95749.16;5008683;28;20480;-66
2021/05/04 08:51:43;;;;;;;3.90;2.42;;;;;;;16.61;47.47;95755.41;5007588;28;20551;-64
2021/05/04 08:54:11;;;;;;;3.97;2.00;;;;;;;16.52;49.40;95769.94;5007394;28;20089;-62
2021/05/04 08:56:40;;;;;;;3.13;2.20;;;;;;;16.49;46.70;95747.19;5007294;28;20512;-61
2021/05/04 08:59:09;;;;;;;2.45;2.10;;;;;;;16.57;48.40;95749.66;5006499;28;20647;-64
2021/05/04 09:01:38;;;;;;;2.47;2.25;;;;;;;16.71;47.43;95749.72;5007963;28;20062;-64
2021/05/04 09:04:25;;;;;;;3.25;2.40;;;;;;;16.77;46.40;95752.44;5006722;28;20081;-61
2021/05/04 09:06:55;;;;;;;3.28;2.60;;;;;;;16.98;47.62;95750.63;5009961;28;21308;-65
2021/05/04 09:09:27;;;;;;;;;;;;;;;16.98;42.88;95734.66;5004665;28;20547;-65
2021/05/04 09:12:08;;;;;;;2.78;2.15;;;;;;;17.36;46.37;95745.56;5007313;28;19991;-65
2021/05/04 09:14:48;;;;;;;;;;;;;;;16.97;45.31;95749.81;5006782;28;20104;-64
2021/05/04 09:17:19;;;;;;;2.33;2.13;;;;;;;17.06;44.42;95732.59;5006946;28;19953;-64
2021/05/04 09:20:04;;;;;;;1.83;1.70;;;;;;;16.80;42.31;95727.25;5004541;28;20452;-65
2021/05/04 09:22:37;;;;;;;3.70;2.17;;;;;;;17.28;40.59;95732.44;5008277;28;20074;-65
2021/05/04 09:25:06;;;;;;;2.22;2.03;;;;;;;17.16;41.80;95723.41;5007291;28;20077;-64
2021/05/04 09:27:34;;;;;;;2.28;1.90;;;;;;;17.44;42.18;95713.34;4998140;28;20272;-65
2021/05/04 09:30:03;;;;;;;4.13;2.28;;;;;;;18.10;39.04;95719.63;5005834;28;20077;-63
2021/05/04 09:32:50;;;;;;;2.33;1.95;;;;;;;17.84;42.92;95712.53;5005613;28;20066;-64
2021/05/04 09:35:29;;;;;;;2.53;1.90;;;;;;;17.61;40.54;95710.28;5003786;28;20065;-62
2021/05/04 09:38:03;;;;;;;2.42;2.13;;;;;;;17.47;37.45;95704.94;5008257;28;20489;-65
2021/05/04 09:40:34;;;;;;;2.30;2.08;;;;;;;17.67;41.49;95710.25;5004052;28;20077;-63
2021/05/04 09:43:03;;;;;;;3.10;2.17;;;;;;;17.52;39.98;95712.34;5008660;28;20085;-57
2021/05/04 09:45:31;;;;;;;4.43;1.98;;;;;;;17.32;38.02;95707.84;5004030;28;20239;-66
2021/05/04 09:48:08;;;;;;;4.22;2.00;;;;;;;17.24;39.46;95769.34;5007095;28;20138;-66
2021/05/04 09:50:51;;;;;;;2.13;1.88;;;;;;;17.00;39.00;95705.97;4999306;28;20531;-63
2021/05/04 09:53:23;;;;;;;2.75;1.80;;;;;;;16.86;40.63;95686.47;5006156;28;20070;-64
2021/05/04 09:55:55;;;;;;;4.10;2.22;;;;;;;17.33;37.23;95685.47;5005314;28;20069;-64
2021/05/04 09:58:36;;;;;;;2.92;2.03;;;;;;;17.30;39.98;95688.53;5004662;28;20477;-64
2021/05/04 10:01:07;;;;;;;2.15;1.90;;;;;;;17.40;39.27;95701.47;5006018;28;20077;-64
2021/05/04 10:03:35;;;;;;;4.95;2.05;;;;;;;17.64;41.65;95691.19;5005962;28;20410;-63
2021/05/04 10:06:06;;;;;;;4.07;2.03;;;;;;;17.58;40.23;95692.84;5003176;28;20065;-64
2021/05/04 10:08:34;;;;;;;3.10;1.70;;;;;;;17.23;39.72;95678.94;4998072;28;20057;-64
2021/05/04 10:11:03;;;;;;;6.60;2.03;;;;;;;17.09;40.87;95630.16;5005931;28;20078;-63
2021/05/04 10:13:32;;;;;;;2.80;1.98;;;;;;;17.23;39.86;95679.75;5004748;28;20073;-64
2021/05/04 10:16:01;;;;;;;2.00;1.65;;;;;;;17.25;38.21;95666.22;5005818;28;20487;-63
2021/05/04 10:18:29;;;;;;;5.43;1.95;;;;;;;17.39;37.57;95670.53;5006951;28;20058;-66
2021/05/04 10:21:00;;;;;;;3.50;1.90;;;;;;;17.61;41.02;95668.44;5003499;28;20061;-64
2021/05/04 10:23:29;;;;;;;4.40;2.00;;;;;;;17.31;36.79;95649.44;5005357;28;20069;-63
2021/05/04 10:25:59;;;;;;;2.55;2.05;;;;;;;17.38;36.85;95660.91;5005283;28;20070;-64
2021/05/04 10:28:33;;;;;;;2.65;1.90;;;;;;;17.75;41.46;95643.38;5004399;28;20077;-65
2021/05/04 10:31:02;;;;;;;2.60;1.90;;;;;;;17.49;39.41;95651.44;5005947;28;20069;-64
2021/05/04 10:33:32;;;;;;;1.80;1.45;;;;;;;17.25;40.01;95647.56;5007176;28;20074;-65
2021/05/04 10:36:03;;;;;;;2.13;1.52;;;;;;;17.50;38.30;95645.06;5003339;28;20504;-65
2021/05/04 10:38:52;;;;;;;2.38;1.60;;;;;;;17.58;39.37;95636.84;5005681;28;20072;-64
2021/05/04 10:41:21;;;;;;;3.22;1.65;;;;;;;17.51;39.57;95644.84;5003102;28;20504;-64
2021/05/04 10:43:59;;;;;;;3.00;1.77;;;;;;;18.09;40.46;95651.31;5003850;28;20073;-65
2021/05/04 10:46:37;;;;;;;2.53;1.75;;;;;;;18.22;43.39;95630.72;5001815;28;20077;-63
2021/05/04 10:49:05;;;;;;;;;;;;;;;17.60;38.52;95618.81;5009738;28;20516;-64
2021/05/04 10:51:44;;;;;;;1.42;1.30;;;;;;;17.95;39.09;95607.84;5001468;28;21371;-62
2021/05/04 10:54:14;;;;;;;2.15;1.90;;;;;;;18.53;40.60;95622.97;5004350;28;20062;-56
2021/05/04 10:56:44;;;;;;;2.10;1.63;;;;;;;18.15;39.27;95629.13;5004179;28;20066;-61
2021/05/04 10:59:13;;;;;;;9.77;1.98;;;;;;;18.22;38.08;95598.69;5005550;28;20069;-62
2021/05/04 11:02:30;;;;;;;1.88;1.50;;;;;;;18.12;38.39;95544.97;5002134;28;20062;-64
2021/05/04 11:04:58;;;;;;;1.92;1.65;;;;;;;18.07;37.27;95597.34;5000557;28;20120;-64
2021/05/04 11:07:56;;;;;;;2.08;1.88;;;;;;;18.07;39.57;95592.00;5004333;28;20092;-64
2021/05/04 11:10:27;;;;;;;1.30;1.20;;;;;;;18.20;37.94;95594.59;5004731;28;20074;-64
2021/05/04 11:13:46;;;;;;;1.67;1.50;;;;;;;17.80;39.02;95602.78;5003415;28;20073;-63
2021/05/04 11:16:29;;;;;;;2.00;1.65;;;;;;;17.86;39.58;95585.09;5005246;28;20085;-65
2021/05/04 11:19:01;;;;;;;2.42;1.75;;;;;;;18.07;37.17;95589.34;5003823;28;20094;-64
2021/05/04 11:21:40;;;;;;;2.15;1.25;;;;;;;18.12;40.22;95595.66;5004754;28;20081;-63
2021/05/04 11:24:09;;;;;;;2.00;1.80;;;;;;;18.09;39.16;95580.06;5001572;28;20092;-65
2021/05/04 11:26:48;;;;;;;4.88;1.30;;;;;;;18.07;38.17;95573.34;5005812;28;20069;-64
2021/05/04 11:29:17;;;;;;;5.30;1.77;;;;;;;18.60;40.08;95599.72;5002958;28;20065;-63
2021/05/04 11:31:46;;;;;;;2.03;1.35;;;;;;;18.26;37.69;95577.72;5004778;28;20070;-64
2021/05/04 11:34:39;;;;;;;7.10;1.27;;;;;;;18.03;37.33;95583.59;5003671;28;20081;-63
2021/05/04 11:37:10;;;;;;;1.55;1.25;;;;;;;17.89;39.30;95580.16;5005166;28;20473;-65
2021/05/04 11:39:38;;;;;;;1.67;1.48;;;;;;;17.91;37.28;95577.31;4999687;28;20092;-63
2021/05/04 11:42:08;;;;;;;1.77;1.50;;;;;;;18.37;40.53;95586.91;5004543;28;20058;-64
2021/05/04 11:44:37;;;;;;;3.20;1.75;;;;;;;18.05;39.92;95586.88;5001676;28;20540;-64